Accueil
METAR-TAF:

METAR-TAF

Aéroports :

Limon Municipal Airport

Limon, Colorado, États-Unis

latitude: 39-16-24N, longitude: 103-40-00W, altitude: 1635 m

Observation

Le bulletin a été fait il y a 44 minutes, à 00:55 UTC
Vent 11 kt de nord-est
Température 28°C
Humidité 22%
Pression 1020 hPa
Visibilité: 16.1 km
Ciel clair

METAR: KLIC 030055Z AUTO 05011KT 10SM CLR 28/04 A3012 RMK AO2 SLP119 T02780044

Heure: 19:39 (01:39 UTC)


TAF: absent

Observations et prévisions météorologiques de plus de 4000 aéroports (messages METAR et TAF).

Les stations disponibles sont représentées par des disques jaunes et rouges sur la carte.

Passer la souris dessus pour voir le nom de la station.

Cliquer dessus pour voir les observations et prévisions météorologiques.

Pour changer de carte: cliquez sur les boutons verts avec une croix noire pour zoomer, sur le bouton vert avec un tiret pour effectuer un zoom arrière, ou sur les flèches vertes pour les cartes adjacentes.


METAR-TAF: